Time;durP1;ratioP1;P1;durP2;ratioP2;P2;SDS_P1;SDS_P2;PMS_P1;PMS_P2;Temp;Humidity;BMP_temperature;BMP_pressure;BME280_temperature;BME280_humidity;BME280_pressure;Samples;Min_cycle;Max_cycle;Signal;HPM_P1;HPM_P2
2022/10/13 00:01:54;;;;;;;8.93;5.23;;;;;;;;;;5054124;28;20231;-45
2022/10/13 00:04:20;;;;;;;9.23;4.50;;;;;;;;;;5054229;28;20219;-46
2022/10/13 00:06:48;;;;;;;8.57;4.50;;;;;;;;;;5054031;28;20566;-46
2022/10/13 00:09:14;;;;;;;5.10;4.20;;;;;;;;;;5054078;28;20778;-45
2022/10/13 00:11:40;;;;;;;7.53;4.40;;;;;;;;;;5053549;28;20595;-46
2022/10/13 00:14:06;;;;;;;4.90;4.37;;;;;;;;;;5052217;28;20224;-45
2022/10/13 00:16:32;;;;;;;7.77;4.50;;;;;;;;;;5051894;28;20230;-45
2022/10/13 00:18:58;;;;;;;5.87;4.40;;;;;;;;;;5054099;28;20222;-46
2022/10/13 00:21:25;;;;;;;5.57;4.97;;;;;;;;;;5054025;28;20200;-46
2022/10/13 00:23:53;;;;;;;7.10;5.00;;;;;;;;;;5053689;28;20254;-46
2022/10/13 00:26:20;;;;;;;5.53;4.90;;;;;;;;;;5051631;28;20235;-46
2022/10/13 00:28:46;;;;;;;6.33;4.50;;;;;;;;;;5053242;28;20254;-46
2022/10/13 00:31:16;;;;;;;7.23;5.10;;;;;;;;;;5053961;28;20193;-47
2022/10/13 00:33:42;;;;;;;6.27;4.70;;;;;;;;;;5053547;28;20199;-46
2022/10/13 00:36:08;;;;;;;5.83;4.57;;;;;;;;;;5053708;28;20310;-46
2022/10/13 00:38:34;;;;;;;9.07;5.37;;;;;;;;;;5053798;28;20575;-45
2022/10/13 00:41:02;;;;;;;9.40;4.90;;;;;;;;;;5053410;28;20234;-47
2022/10/13 00:43:46;;;;;;;10.43;5.07;;;;;;;;;;5052949;28;20301;-46
2022/10/13 00:46:12;;;;;;;11.17;4.60;;;;;;;;;;5053448;28;20200;-47
2022/10/13 00:48:38;;;;;;;10.77;5.23;;;;;;;;;;5053436;28;20210;-46
2022/10/13 00:51:05;;;;;;;7.73;5.53;;;;;;;;;;5052955;28;20671;-46
2022/10/13 00:53:32;;;;;;;8.57;5.00;;;;;;;;;;5053625;28;20215;-46
2022/10/13 00:55:58;;;;;;;8.53;4.83;;;;;;;;;;5053536;28;20257;-46
2022/10/13 00:58:30;;;;;;;12.17;5.57;;;;;;;;;;5053372;28;20261;-47
2022/10/13 01:00:56;;;;;;;7.27;5.00;;;;;;;;;;5052914;28;20220;-46
2022/10/13 01:03:23;;;;;;;8.87;5.60;;;;;;;;;;5053447;28;20234;-46
2022/10/13 01:05:50;;;;;;;8.13;5.20;;;;;;;;;;5053170;28;20242;-46
2022/10/13 01:08:17;;;;;;;6.07;4.77;;;;;;;;;;5053067;28;20687;-46
2022/10/13 01:10:47;;;;;;;7.20;5.00;;;;;;;;;;5052911;28;20228;-47
2022/10/13 01:13:19;;;;;;;8.57;5.27;;;;;;;;;;5053160;28;20197;-46
2022/10/13 01:15:51;;;;;;;10.40;4.70;;;;;;;;;;5052819;28;20192;-46
2022/10/13 01:18:20;;;;;;;6.63;5.40;;;;;;;;;;5053032;28;20615;-46
2022/10/13 01:21:01;;;;;;;6.43;4.97;;;;;;;;;;5052598;28;20201;-47
2022/10/13 01:23:33;;;;;;;6.67;4.80;;;;;;;;;;5050285;28;20228;-45
2022/10/13 01:26:14;;;;;;;8.63;5.03;;;;;;;;;;5052962;28;20227;-46
2022/10/13 01:28:52;;;;;;;12.10;5.43;;;;;;;;;;5052940;28;20654;-46
2022/10/13 01:31:24;;;;;;;8.37;5.17;;;;;;;;;;5052791;28;20568;-46
2022/10/13 01:33:55;;;;;;;9.87;5.37;;;;;;;;;;5052624;28;20938;-46
2022/10/13 01:36:26;;;;;;;5.40;4.60;;;;;;;;;;5052844;28;20239;-45
2022/10/13 01:38:54;;;;;;;7.43;4.87;;;;;;;;;;5052593;28;20220;-46
2022/10/13 01:41:25;;;;;;;7.17;4.47;;;;;;;;;;5051618;28;20222;-46
2022/10/13 01:43:53;;;;;;;6.47;5.07;;;;;;;;;;5052683;28;20232;-46
2022/10/13 01:46:22;;;;;;;6.93;4.60;;;;;;;;;;5052585;28;20193;-46
2022/10/13 01:48:48;;;;;;;4.70;4.27;;;;;;;;;;5052495;28;20201;-46
2022/10/13 01:51:17;;;;;;;11.03;4.53;;;;;;;;;;5052007;28;20275;-46
2022/10/13 01:53:44;;;;;;;6.50;4.87;;;;;;;;;;5052452;28;20283;-45
2022/10/13 01:56:10;;;;;;;6.40;4.63;;;;;;;;;;5052368;28;20231;-45
2022/10/13 01:58:37;;;;;;;7.27;5.27;;;;;;;;;;5052103;28;20290;-46
2022/10/13 02:01:08;;;;;;;7.17;4.87;;;;;;;;;;5052377;28;20719;-46
2022/10/13 02:03:41;;;;;;;5.23;4.70;;;;;;;;;;5052037;28;20244;-48
2022/10/13 02:06:12;;;;;;;6.53;5.00;;;;;;;;;;5052223;28;20246;-46
2022/10/13 02:08:43;;;;;;;9.77;5.70;;;;;;;;;;5052099;28;20580;-45
2022/10/13 02:11:12;;;;;;;7.83;5.33;;;;;;;;;;5051837;28;20220;-46
2022/10/13 02:13:40;;;;;;;8.83;5.57;;;;;;;;;;5051900;28;20196;-46
2022/10/13 02:16:06;;;;;;;7.67;5.73;;;;;;;;;;5051541;28;20653;-46
2022/10/13 02:18:33;;;;;;;12.43;6.57;;;;;;;;;;5051919;28;20242;-46
2022/10/13 02:21:02;;;;;;;11.10;6.10;;;;;;;;;;5051644;28;20275;-46
2022/10/13 02:23:28;;;;;;;9.00;5.83;;;;;;;;;;5051405;28;20228;-47
2022/10/13 02:25:56;;;;;;;8.57;5.90;;;;;;;;;;5051538;28;20204;-46
2022/10/13 02:28:22;;;;;;;8.83;6.00;;;;;;;;;;5051786;28;20208;-47
2022/10/13 02:30:48;;;;;;;13.20;6.60;;;;;;;;;;5051769;28;20286;-45
2022/10/13 02:33:14;;;;;;;11.73;6.30;;;;;;;;;;5051740;28;20199;-46
2022/10/13 02:35:40;;;;;;;11.13;7.13;;;;;;;;;;5051661;28;20207;-46
2022/10/13 02:38:08;;;;;;;8.60;6.47;;;;;;;;;;5051591;28;20196;-46
2022/10/13 02:40:34;;;;;;;11.40;6.47;;;;;;;;;;5051240;28;20674;-46
2022/10/13 02:43:00;;;;;;;9.10;6.40;;;;;;;;;;5051445;28;20223;-46
2022/10/13 02:45:26;;;;;;;9.17;7.03;;;;;;;;;;5051679;28;20284;-45
2022/10/13 02:47:52;;;;;;;7.80;7.00;;;;;;;;;;5051578;28;20231;-47
2022/10/13 02:50:18;;;;;;;9.30;7.00;;;;;;;;;;5051257;28;20724;-45
2022/10/13 02:52:44;;;;;;;8.27;7.00;;;;;;;;;;5051213;28;20200;-45
2022/10/13 02:55:12;;;;;;;11.50;7.20;;;;;;;;;;5051504;28;20204;-45
2022/10/13 02:57:38;;;;;;;12.47;7.67;;;;;;;;;;5051405;28;20286;-45
2022/10/13 03:00:04;;;;;;;10.33;7.53;;;;;;;;;;5051521;28;20200;-45
2022/10/13 03:02:30;;;;;;;9.47;7.80;;;;;;;;;;5051279;28;20251;-46
2022/10/13 03:04:56;;;;;;;8.17;7.23;;;;;;;;;;5051472;28;20212;-45
2022/10/13 03:07:23;;;;;;;12.77;7.77;;;;;;;;;;5051414;28;20251;-45
2022/10/13 03:09:49;;;;;;;10.23;7.73;;;;;;;;;;5051145;28;20982;-45
2022/10/13 03:12:16;;;;;;;13.87;8.07;;;;;;;;;;5051406;28;20239;-45
2022/10/13 03:14:42;;;;;;;8.07;7.17;;;;;;;;;;5050867;28;20238;-45
2022/10/13 03:17:08;;;;;;;12.97;8.07;;;;;;;;;;5051072;28;20192;-45
2022/10/13 03:19:34;;;;;;;12.20;7.93;;;;;;;;;;5051274;28;20716;-45
2022/10/13 03:22:00;;;;;;;12.33;7.83;;;;;;;;;;5050978;28;20651;-45
2022/10/13 03:24:26;;;;;;;10.13;7.97;;;;;;;;;;5051302;28;20716;-45
2022/10/13 03:26:53;;;;;;;14.00;9.10;;;;;;;;;;5051201;28;20279;-45
2022/10/13 03:29:21;;;;;;;19.43;10.53;;;;;;;;;;5051253;28;20205;-46
2022/10/13 03:31:47;;;;;;;19.17;12.33;;;;;;;;;;5050839;28;20208;-46
2022/10/13 03:34:15;;;;;;;19.53;12.10;;;;;;;;;;5051141;28;20192;-46
2022/10/13 03:36:41;;;;;;;18.57;12.17;;;;;;;;;;5051076;28;20230;-46
2022/10/13 03:39:07;;;;;;;15.90;10.47;;;;;;;;;;5051209;28;20204;-46
2022/10/13 03:41:33;;;;;;;13.97;10.27;;;;;;;;;;5050822;28;20193;-45
2022/10/13 03:43:59;;;;;;;12.03;9.37;;;;;;;;;;5050924;28;20235;-45
2022/10/13 03:46:30;;;;;;;11.83;8.73;;;;;;;;;;5051137;28;20207;-45
2022/10/13 03:48:57;;;;;;;11.80;8.97;;;;;;;;;;5050835;28;20204;-45
2022/10/13 03:51:23;;;;;;;12.87;8.90;;;;;;;;;;5050743;28;20676;-45
2022/10/13 03:53:49;;;;;;;11.00;9.30;;;;;;;;;;5050857;28;20198;-45
2022/10/13 03:56:16;;;;;;;14.67;8.90;;;;;;;;;;5051079;28;20234;-47
2022/10/13 03:58:42;;;;;;;14.73;8.70;;;;;;;;;;5050887;28;20295;-46
2022/10/13 04:01:10;;;;;;;14.77;10.40;;;;;;;;;;5050849;28;20234;-45
2022/10/13 04:03:37;;;;;;;14.03;8.77;;;;;;;;;;5050513;28;20224;-46
2022/10/13 04:06:04;;;;;;;14.70;9.37;;;;;;;;;;5054333;28;20200;-46
2022/10/13 04:08:31;;;;;;;14.37;9.93;;;;;;;;;;5054209;28;20216;-46
2022/10/13 04:10:58;;;;;;;17.50;9.47;;;;;;;;;;5054278;28;20235;-46
2022/10/13 04:13:24;;;;;;;10.93;8.40;;;;;;;;;;5054331;28;20193;-46
2022/10/13 04:15:50;;;;;;;12.27;9.80;;;;;;;;;;5053985;28;20217;-46
2022/10/13 04:18:16;;;;;;;16.80;10.17;;;;;;;;;;5053781;28;20243;-46
2022/10/13 04:20:43;;;;;;;14.73;9.50;;;;;;;;;;5052021;28;20203;-46
2022/10/13 04:23:09;;;;;;;13.43;9.57;;;;;;;;;;5054202;28;20231;-46
2022/10/13 04:25:36;;;;;;;13.03;9.97;;;;;;;;;;5053993;28;20283;-46
2022/10/13 04:28:02;;;;;;;12.33;9.57;;;;;;;;;;5054134;28;20204;-47
2022/10/13 04:30:28;;;;;;;13.03;10.00;;;;;;;;;;5053979;28;20530;-45
2022/10/13 04:32:54;;;;;;;12.80;10.03;;;;;;;;;;5053731;28;20607;-46
2022/10/13 04:35:20;;;;;;;14.30;10.40;;;;;;;;;;5053539;28;20698;-46
2022/10/13 04:37:48;;;;;;;13.70;9.63;;;;;;;;;;5053220;28;20227;-46
2022/10/13 04:40:14;;;;;;;11.70;9.37;;;;;;;;;;5053978;28;20224;-46
2022/10/13 04:42:40;;;;;;;15.53;10.23;;;;;;;;;;5053247;28;20230;-46
2022/10/13 04:45:07;;;;;;;14.90;9.67;;;;;;;;;;5053569;28;20197;-46
2022/10/13 04:47:34;;;;;;;12.40;10.80;;;;;;;;;;5053481;28;20681;-46
2022/10/13 04:50:00;;;;;;;14.80;11.50;;;;;;;;;;5053375;28;20646;-46
2022/10/13 04:52:26;;;;;;;12.70;10.60;;;;;;;;;;5053220;28;20196;-45
2022/10/13 04:54:53;;;;;;;14.80;10.83;;;;;;;;;;5053391;28;20204;-45
2022/10/13 04:57:20;;;;;;;19.77;10.20;;;;;;;;;;5053427;28;20239;-47
2022/10/13 04:59:46;;;;;;;17.27;10.77;;;;;;;;;;5053082;28;20685;-45
2022/10/13 05:02:12;;;;;;;11.73;10.23;;;;;;;;;;5053395;28;20196;-45
2022/10/13 05:04:38;;;;;;;16.90;11.00;;;;;;;;;;5053176;28;20287;-45
2022/10/13 05:07:04;;;;;;;17.47;11.57;;;;;;;;;;5053041;28;20219;-47
2022/10/13 05:09:30;;;;;;;13.93;10.87;;;;;;;;;;5053115;28;20211;-45
2022/10/13 05:11:57;;;;;;;15.57;11.13;;;;;;;;;;5053016;28;20200;-47
2022/10/13 05:14:23;;;;;;;15.47;10.73;;;;;;;;;;5052957;28;20200;-45
2022/10/13 05:16:49;;;;;;;14.50;10.47;;;;;;;;;;5052496;28;20206;-47
2022/10/13 05:19:16;;;;;;;13.33;10.90;;;;;;;;;;5052890;28;20192;-45
2022/10/13 05:21:42;;;;;;;14.53;10.37;;;;;;;;;;5052916;28;20230;-45
2022/10/13 05:24:12;;;;;;;15.57;11.17;;;;;;;;;;5052716;28;20228;-45
2022/10/13 05:26:38;;;;;;;17.77;12.07;;;;;;;;;;5053083;28;20200;-46
2022/10/13 05:29:06;;;;;;;17.67;10.73;;;;;;;;;;5052067;28;20208;-46
2022/10/13 05:31:33;;;;;;;15.70;11.60;;;;;;;;;;5050893;28;20732;-47
2022/10/13 05:33:59;;;;;;;15.73;11.40;;;;;;;;;;5051836;28;20273;-47
2022/10/13 05:36:26;;;;;;;13.10;11.10;;;;;;;;;;5052127;28;20200;-46
2022/10/13 05:38:53;;;;;;;15.50;11.23;;;;;;;;;;5052352;28;20227;-45
2022/10/13 05:41:20;;;;;;;12.50;10.50;;;;;;;;;;5052444;28;20211;-45
2022/10/13 05:43:46;;;;;;;10.90;9.80;;;;;;;;;;5052551;28;20232;-45
2022/10/13 05:46:14;;;;;;;12.43;9.47;;;;;;;;;;5052534;28;20378;-45
2022/10/13 05:48:40;;;;;;;16.17;10.90;;;;;;;;;;5052304;28;20273;-45
2022/10/13 05:51:07;;;;;;;16.07;10.47;;;;;;;;;;5052072;28;20235;-45
2022/10/13 05:53:33;;;;;;;18.83;10.47;;;;;;;;;;5052394;28;20199;-45
2022/10/13 05:56:05;;;;;;;14.17;10.77;;;;;;;;;;5052405;28;20196;-46
2022/10/13 05:58:31;;;;;;;12.20;9.53;;;;;;;;;;5052433;28;20203;-46
2022/10/13 06:00:58;;;;;;;12.87;9.40;;;;;;;;;;5051557;28;20280;-45
2022/10/13 06:03:27;;;;;;;13.30;10.70;;;;;;;;;;5051508;28;20330;-45
2022/10/13 06:05:53;;;;;;;15.33;10.00;;;;;;;;;;5051891;28;20204;-46
2022/10/13 06:08:19;;;;;;;13.67;10.20;;;;;;;;;;5052412;28;20254;-46
2022/10/13 06:10:45;;;;;;;14.57;10.57;;;;;;;;;;5051231;28;20231;-45
2022/10/13 06:13:11;;;;;;;15.53;10.67;;;;;;;;;;5052046;28;20204;-45
2022/10/13 06:15:37;;;;;;;15.47;10.23;;;;;;;;;;5051920;28;20246;-46
2022/10/13 06:18:06;;;;;;;13.97;9.40;;;;;;;;;;5051654;28;20196;-45
2022/10/13 06:20:34;;;;;;;11.30;9.87;;;;;;;;;;5051669;28;20254;-46
2022/10/13 06:23:00;;;;;;;16.40;10.23;;;;;;;;;;5051619;28;20235;-46
2022/10/13 06:25:26;;;;;;;14.47;10.00;;;;;;;;;;5051771;28;20191;-46
2022/10/13 06:27:52;;;;;;;13.97;10.23;;;;;;;;;;5050719;28;20283;-46
2022/10/13 06:30:18;;;;;;;15.23;10.50;;;;;;;;;;5051588;28;20201;-45
2022/10/13 06:32:44;;;;;;;14.33;11.00;;;;;;;;;;5051225;28;20698;-45
2022/10/13 06:35:10;;;;;;;14.47;10.13;;;;;;;;;;5051850;28;20200;-45
2022/10/13 06:37:37;;;;;;;14.53;10.03;;;;;;;;;;5051544;28;20291;-46
2022/10/13 06:40:04;;;;;;;14.50;10.63;;;;;;;;;;5051597;28;20196;-46
2022/10/13 06:42:32;;;;;;;15.43;10.90;;;;;;;;;;5051480;28;20192;-46
2022/10/13 06:44:58;;;;;;;17.20;10.60;;;;;;;;;;5051507;28;20286;-46
2022/10/13 06:47:24;;;;;;;12.97;10.80;;;;;;;;;;5051523;28;20246;-46
2022/10/13 06:49:50;;;;;;;12.27;10.00;;;;;;;;;;5051091;28;20576;-46
2022/10/13 06:52:16;;;;;;;13.40;10.27;;;;;;;;;;5050552;28;20585;-46
2022/10/13 06:54:44;;;;;;;15.57;10.47;;;;;;;;;;5051423;28;20200;-47
2022/10/13 06:57:11;;;;;;;13.53;10.07;;;;;;;;;;5051503;28;20204;-47
2022/10/13 06:59:37;;;;;;;11.07;8.93;;;;;;;;;;5051190;28;20271;-45
2022/10/13 07:02:03;;;;;;;12.93;9.73;;;;;;;;;;5051434;28;20196;-45
2022/10/13 07:04:29;;;;;;;13.17;10.17;;;;;;;;;;5051111;28;20238;-46
2022/10/13 07:06:55;;;;;;;13.63;9.27;;;;;;;;;;5051217;28;20279;-47
2022/10/13 07:09:21;;;;;;;16.30;10.37;;;;;;;;;;5051213;28;20227;-46
2022/10/13 07:11:49;;;;;;;13.87;9.70;;;;;;;;;;5049144;28;20203;-56
2022/10/13 07:14:15;;;;;;;12.67;9.63;;;;;;;;;;5062578;28;20210;-46
2022/10/13 07:16:41;;;;;;;12.17;9.17;;;;;;;;;;5070156;28;20207;-46
2022/10/13 07:19:07;;;;;;;14.40;10.23;;;;;;;;;;5070856;28;20253;-46
2022/10/13 07:21:33;;;;;;;15.33;9.70;;;;;;;;;;5070886;28;20237;-46
2022/10/13 07:24:00;;;;;;;12.07;9.30;;;;;;;;;;5070438;28;20227;-46
2022/10/13 07:26:26;;;;;;;12.10;9.20;;;;;;;;;;5069671;28;20270;-45
2022/10/13 07:28:54;;;;;;;13.57;10.10;;;;;;;;;;5070052;28;20234;-46
2022/10/13 07:31:20;;;;;;;13.20;9.70;;;;;;;;;;5070049;28;20226;-46
2022/10/13 07:33:48;;;;;;;12.23;9.30;;;;;;;;;;5070758;28;20666;-45
2022/10/13 07:36:14;;;;;;;14.63;9.57;;;;;;;;;;5070277;28;20331;-46
2022/10/13 07:38:41;;;;;;;12.03;8.43;;;;;;;;;;5070724;28;20206;-45
2022/10/13 07:41:09;;;;;;;12.30;8.93;;;;;;;;;;5074383;28;20202;-47
2022/10/13 07:43:35;;;;;;;12.33;9.07;;;;;;;;;;5074467;28;20269;-47
2022/10/13 07:46:05;;;;;;;15.00;8.40;;;;;;;;;;5074244;28;20195;-47
2022/10/13 07:48:32;;;;;;;10.13;7.77;;;;;;;;;;5074231;28;20195;-46
2022/10/13 07:50:58;;;;;;;14.67;9.67;;;;;;;;;;5074388;28;20239;-47
2022/10/13 07:53:24;;;;;;;10.40;8.50;;;;;;;;;;5074524;28;20195;-46
2022/10/13 07:55:50;;;;;;;10.17;8.83;;;;;;;;;;5074331;28;20207;-46
2022/10/13 07:58:16;;;;;;;11.90;8.53;;;;;;;;;;5074328;28;20199;-46
2022/10/13 08:00:42;;;;;;;11.07;8.07;;;;;;;;;;5073718;28;20195;-46
2022/10/13 08:03:09;;;;;;;13.83;9.70;;;;;;;;;;5074151;28;20220;-46
2022/10/13 08:05:36;;;;;;;11.13;8.70;;;;;;;;;;5074004;28;20204;-46
2022/10/13 08:08:02;;;;;;;10.37;8.40;;;;;;;;;;5072264;28;20219;-46
2022/10/13 08:10:29;;;;;;;14.40;8.83;;;;;;;;;;5074108;28;20203;-46
2022/10/13 08:12:55;;;;;;;11.40;8.93;;;;;;;;;;5073462;28;20195;-46
2022/10/13 08:15:21;;;;;;;12.77;8.67;;;;;;;;;;5073867;28;20217;-46
2022/10/13 08:17:47;;;;;;;11.13;7.80;;;;;;;;;;5073827;28;20281;-46
2022/10/13 08:20:15;;;;;;;12.83;8.60;;;;;;;;;;5073946;28;20203;-46
2022/10/13 08:22:41;;;;;;;11.77;8.67;;;;;;;;;;5073574;28;20206;-46
2022/10/13 08:25:07;;;;;;;9.60;8.03;;;;;;;;;;5073617;28;20216;-46
2022/10/13 08:27:33;;;;;;;14.17;9.53;;;;;;;;;;5073939;28;20204;-46
2022/10/13 08:29:59;;;;;;;11.93;7.70;;;;;;;;;;5073711;28;20200;-47
2022/10/13 08:32:25;;;;;;;13.47;8.07;;;;;;;;;;5073724;28;20522;-47
2022/10/13 08:34:51;;;;;;;10.03;7.80;;;;;;;;;;5073372;28;20195;-46
2022/10/13 08:37:20;;;;;;;11.83;7.70;;;;;;;;;;5065655;28;20231;-46
2022/10/13 08:39:50;;;;;;;14.10;7.23;;;;;;;;;;5049803;28;20601;-51
2022/10/13 08:42:17;;;;;;;9.23;7.37;;;;;;;;;;5051283;28;20744;-45
2022/10/13 08:44:45;;;;;;;9.40;6.90;;;;;;;;;;5053075;28;20261;-46
2022/10/13 08:47:14;;;;;;;9.10;6.70;;;;;;;;;;5053490;28;20674;-45
2022/10/13 08:49:42;;;;;;;11.00;6.97;;;;;;;;;;5052110;28;20255;-46
2022/10/13 08:52:09;;;;;;;8.13;7.27;;;;;;;;;;5053401;28;20200;-47
2022/10/13 08:54:37;;;;;;;10.80;7.50;;;;;;;;;;5053278;28;20650;-46
2022/10/13 08:57:05;;;;;;;14.03;7.73;;;;;;;;;;5053192;28;20207;-47
2022/10/13 08:59:31;;;;;;;12.67;7.90;;;;;;;;;;5053187;28;20204;-46
2022/10/13 09:01:58;;;;;;;9.93;7.63;;;;;;;;;;5052463;28;20292;-46
2022/10/13 09:04:28;;;;;;;11.80;7.43;;;;;;;;;;5052965;28;20230;-46
2022/10/13 09:06:55;;;;;;;9.13;7.10;;;;;;;;;;5052740;28;20279;-46
2022/10/13 09:09:21;;;;;;;8.77;6.57;;;;;;;;;;5050749;28;20216;-46
2022/10/13 09:11:49;;;;;;;12.50;7.13;;;;;;;;;;5049816;28;20222;-46
2022/10/13 09:14:20;;;;;;;9.33;7.37;;;;;;;;;;5052843;28;20204;-46
2022/10/13 09:16:47;;;;;;;10.30;6.63;;;;;;;;;;5052415;28;20204;-46
2022/10/13 09:19:15;;;;;;;10.23;6.97;;;;;;;;;;5050260;28;20626;-46
2022/10/13 09:21:41;;;;;;;9.63;7.13;;;;;;;;;;5052430;28;20219;-46
2022/10/13 09:24:08;;;;;;;10.60;6.80;;;;;;;;;;5050984;28;20252;-47
2022/10/13 09:26:36;;;;;;;12.23;8.37;;;;;;;;;;5052563;28;20295;-46
2022/10/13 09:29:08;;;;;;;11.63;8.17;;;;;;;;;;5051950;28;20204;-46
2022/10/13 09:31:36;;;;;;;11.03;6.87;;;;;;;;;;5052203;28;20283;-45
2022/10/13 09:34:08;;;;;;;12.00;6.93;;;;;;;;;;5052382;28;20200;-47
2022/10/13 09:36:35;;;;;;;11.60;7.23;;;;;;;;;;5052037;28;20200;-47
2022/10/13 09:39:06;;;;;;;10.43;7.43;;;;;;;;;;5052279;28;20211;-45
2022/10/13 09:41:32;;;;;;;8.27;6.60;;;;;;;;;;5052376;28;20204;-46
2022/10/13 09:44:00;;;;;;;11.33;6.90;;;;;;;;;;5052325;28;20705;-46
2022/10/13 09:46:29;;;;;;;10.10;7.10;;;;;;;;;;5052252;28;20201;-47
2022/10/13 09:48:57;;;;;;;8.67;5.70;;;;;;;;;;5052276;28;20223;-47
2022/10/13 09:51:28;;;;;;;11.53;6.77;;;;;;;;;;5052211;28;20779;-46
2022/10/13 09:53:54;;;;;;;9.83;6.43;;;;;;;;;;5052292;28;20258;-46
2022/10/13 09:56:22;;;;;;;10.63;6.80;;;;;;;;;;5051792;28;20207;-46
2022/10/13 09:58:50;;;;;;;10.07;6.20;;;;;;;;;;5051299;28;20209;-46
2022/10/13 10:01:20;;;;;;;10.33;6.10;;;;;;;;;;5051533;28;20234;-46
2022/10/13 10:03:48;;;;;;;9.87;6.47;;;;;;;;;;5049820;28;20315;-46
2022/10/13 10:06:15;;;;;;;11.80;6.50;;;;;;;;;;5052076;28;20202;-46
2022/10/13 10:08:48;;;;;;;10.53;6.50;;;;;;;;;;5049585;28;20224;-46
2022/10/13 10:11:17;;;;;;;10.53;6.73;;;;;;;;;;5051759;28;20216;-46
2022/10/13 10:13:43;;;;;;;9.93;6.47;;;;;;;;;;5051512;28;20220;-46
2022/10/13 10:16:11;;;;;;;9.90;6.30;;;;;;;;;;5050209;28;20197;-46
2022/10/13 10:18:39;;;;;;;9.87;6.80;;;;;;;;;;5052015;28;20217;-46
2022/10/13 10:21:13;;;;;;;11.63;6.27;;;;;;;;;;5051871;28;20245;-46
2022/10/13 10:23:42;;;;;;;9.13;6.07;;;;;;;;;;5051842;28;20237;-46
2022/10/13 10:26:12;;;;;;;8.90;6.20;;;;;;;;;;5051984;28;20649;-46
2022/10/13 10:28:50;;;;;;;11.30;6.27;;;;;;;;;;5051845;28;20712;-47
2022/10/13 10:31:24;;;;;;;10.27;7.10;;;;;;;;;;5051927;28;20194;-47
2022/10/13 10:33:56;;;;;;;7.17;5.53;;;;;;;;;;5051525;28;20248;-47
2022/10/13 10:36:30;;;;;;;11.57;6.10;;;;;;;;;;5051775;28;20699;-47
2022/10/13 10:39:02;;;;;;;9.33;6.13;;;;;;;;;;5051369;28;20300;-47
2022/10/13 10:41:36;;;;;;;7.77;5.73;;;;;;;;;;5051564;28;20672;-46
2022/10/13 10:44:04;;;;;;;8.23;5.83;;;;;;;;;;5049342;28;20235;-46
2022/10/13 10:46:31;;;;;;;8.30;5.60;;;;;;;;;;5050971;28;20208;-47
2022/10/13 10:48:59;;;;;;;8.83;5.43;;;;;;;;;;5049738;28;20199;-47
2022/10/13 10:51:29;;;;;;;9.77;6.20;;;;;;;;;;5051557;28;20245;-46
2022/10/13 10:53:59;;;;;;;10.17;5.87;;;;;;;;;;5051447;28;20210;-47
2022/10/13 10:56:29;;;;;;;10.37;5.67;;;;;;;;;;5050784;28;20206;-47
2022/10/13 10:59:01;;;;;;;11.07;5.63;;;;;;;;;;5048952;28;20658;-46
2022/10/13 11:01:32;;;;;;;8.27;6.40;;;;;;;;;;5050525;28;20208;-46
2022/10/13 11:04:06;;;;;;;9.77;6.07;;;;;;;;;;5050590;28;20291;-46
2022/10/13 11:06:35;;;;;;;11.10;6.13;;;;;;;;;;5051213;28;20251;-46
2022/10/13 11:09:01;;;;;;;9.93;6.13;;;;;;;;;;5050663;28;20726;-46
2022/10/13 11:11:35;;;;;;;10.37;5.87;;;;;;;;;;5050978;28;20292;-46
2022/10/13 11:14:02;;;;;;;9.37;6.33;;;;;;;;;;5053221;28;20227;-47
2022/10/13 11:16:30;;;;;;;10.13;6.43;;;;;;;;;;5054485;28;20234;-46
2022/10/13 11:19:06;;;;;;;8.63;6.00;;;;;;;;;;5051809;28;20318;-46
2022/10/13 11:21:51;;;;;;;9.80;6.40;;;;;;;;;;5054120;28;20200;-46
2022/10/13 11:24:37;;;;;;;8.67;6.60;;;;;;;;;;5052239;28;20232;-46
2022/10/13 11:27:18;;;;;;;9.80;5.87;;;;;;;;;;5054470;28;20268;-47
2022/10/13 11:29:53;;;;;;;11.03;5.97;;;;;;;;;;5053434;28;20281;-46
2022/10/13 11:35:17;;;;;;;9.03;5.90;;;;;;;;;;5054600;28;20186;-47
2022/10/13 11:37:46;;;;;;;6.27;5.27;;;;;;;;;;5053620;28;20202;-47
2022/10/13 11:40:30;;;;;;;8.60;6.23;;;;;;;;;;5054669;28;20816;-47
2022/10/13 11:43:07;;;;;;;10.37;5.53;;;;;;;;;;5054347;28;20193;-47
2022/10/13 11:45:52;;;;;;;11.93;6.33;;;;;;;;;;5054697;28;20590;-47
2022/10/13 11:48:32;;;;;;;8.57;5.73;;;;;;;;;;5053003;28;20204;-48
2022/10/13 11:51:04;;;;;;;7.57;5.70;;;;;;;;;;5053268;28;20256;-48
2022/10/13 11:53:33;;;;;;;8.10;5.90;;;;;;;;;;5053277;28;20197;-46
2022/10/13 11:56:02;;;;;;;10.40;6.03;;;;;;;;;;5052914;28;20682;-46
2022/10/13 11:58:31;;;;;;;9.30;6.13;;;;;;;;;;5054545;28;20199;-46
2022/10/13 12:00:58;;;;;;;8.53;6.27;;;;;;;;;;5054564;28;20292;-48
2022/10/13 12:03:26;;;;;;;11.40;6.20;;;;;;;;;;5054472;28;20246;-46
2022/10/13 12:05:55;;;;;;;9.40;5.77;;;;;;;;;;5054219;28;20202;-46
2022/10/13 12:08:21;;;;;;;10.17;6.30;;;;;;;;;;5052722;28;20591;-46
2022/10/13 12:10:54;;;;;;;8.50;6.30;;;;;;;;;;5054333;28;20200;-46
2022/10/13 12:13:21;;;;;;;8.37;5.17;;;;;;;;;;5054301;28;20246;-46
2022/10/13 12:15:48;;;;;;;7.27;5.40;;;;;;;;;;5054354;28;20200;-46
2022/10/13 12:18:20;;;;;;;10.97;6.03;;;;;;;;;;5054264;28;20208;-46
2022/10/13 12:20:51;;;;;;;11.07;5.43;;;;;;;;;;5054061;28;20196;-49
2022/10/13 12:23:17;;;;;;;8.10;5.50;;;;;;;;;;5054002;28;20224;-46
2022/10/13 12:25:46;;;;;;;12.40;5.73;;;;;;;;;;5050741;28;20207;-46
2022/10/13 12:28:22;;;;;;;7.53;5.77;;;;;;;;;;5053359;28;20201;-47
2022/10/13 12:30:52;;;;;;;8.33;6.07;;;;;;;;;;5054019;28;20601;-55
2022/10/13 12:33:22;;;;;;;11.10;6.30;;;;;;;;;;5053880;28;20193;-47
2022/10/13 12:35:48;;;;;;;6.70;5.70;;;;;;;;;;5053590;28;20291;-47
2022/10/13 12:38:17;;;;;;;15.40;6.27;;;;;;;;;;5053252;28;20211;-47
2022/10/13 12:40:43;;;;;;;9.63;5.57;;;;;;;;;;5053504;28;20229;-47
2022/10/13 12:43:14;;;;;;;11.00;5.57;;;;;;;;;;5053178;28;20256;-46
2022/10/13 12:45:40;;;;;;;11.37;5.47;;;;;;;;;;5053278;28;20205;-47
2022/10/13 12:48:27;;;;;;;9.03;5.90;;;;;;;;;;5053122;28;20659;-47
2022/10/13 12:50:53;;;;;;;12.90;6.03;;;;;;;;;;5051541;28;20240;-47
2022/10/13 12:53:23;;;;;;;10.03;5.40;;;;;;;;;;5051376;28;20271;-48
2022/10/13 12:55:57;;;;;;;11.27;6.10;;;;;;;;;;5052926;28;20238;-47
2022/10/13 12:58:25;;;;;;;7.60;5.77;;;;;;;;;;5052639;28;20196;-47
2022/10/13 13:01:00;;;;;;;9.83;5.93;;;;;;;;;;5052412;28;20254;-47
2022/10/13 13:03:28;;;;;;;8.37;6.13;;;;;;;;;;5052804;28;20216;-48
2022/10/13 13:06:06;;;;;;;10.50;5.63;;;;;;;;;;5052929;28;20265;-47
2022/10/13 13:08:32;;;;;;;10.13;6.07;;;;;;;;;;5051090;28;20234;-47
2022/10/13 13:10:59;;;;;;;9.00;6.37;;;;;;;;;;5052088;28;20222;-47
2022/10/13 13:13:25;;;;;;;10.73;6.40;;;;;;;;;;5052676;28;20196;-48
2022/10/13 13:15:51;;;;;;;11.40;6.27;;;;;;;;;;5052854;28;20296;-47
2022/10/13 13:18:35;;;;;;;8.73;6.10;;;;;;;;;;5050861;28;20249;-47
2022/10/13 13:21:03;;;;;;;12.40;6.10;;;;;;;;;;5052694;28;20726;-47
2022/10/13 13:23:33;;;;;;;8.33;5.47;;;;;;;;;;5052444;28;20294;-47
2022/10/13 13:26:00;;;;;;;7.50;5.17;;;;;;;;;;5052095;28;20224;-47
2022/10/13 13:28:28;;;;;;;10.33;6.03;;;;;;;;;;5052657;28;20287;-47
2022/10/13 13:30:54;;;;;;;10.47;5.70;;;;;;;;;;5052632;28;20207;-47
2022/10/13 13:33:20;;;;;;;9.27;5.43;;;;;;;;;;5052543;28;20189;-47
2022/10/13 13:35:48;;;;;;;10.43;6.23;;;;;;;;;;5052428;28;20204;-47
2022/10/13 13:38:14;;;;;;;11.57;6.57;;;;;;;;;;5052318;28;20232;-48
2022/10/13 13:40:40;;;;;;;10.03;6.33;;;;;;;;;;5052533;28;20203;-48
2022/10/13 13:43:07;;;;;;;11.10;5.60;;;;;;;;;;5052207;28;20206;-48
2022/10/13 13:45:34;;;;;;;12.40;6.20;;;;;;;;;;5050960;28;20193;-47
2022/10/13 13:48:00;;;;;;;9.30;5.33;;;;;;;;;;5051775;28;20285;-48
2022/10/13 13:50:27;;;;;;;11.03;5.43;;;;;;;;;;5049632;28;20318;-47
2022/10/13 13:52:54;;;;;;;11.10;6.70;;;;;;;;;;5051501;28;20575;-48
2022/10/13 13:55:22;;;;;;;7.77;5.63;;;;;;;;;;5051193;28;20642;-47
2022/10/13 13:57:48;;;;;;;7.50;5.87;;;;;;;;;;5051947;28;20577;-47
2022/10/13 14:00:15;;;;;;;10.33;5.97;;;;;;;;;;5051841;28;20205;-48
2022/10/13 14:02:42;;;;;;;8.97;5.67;;;;;;;;;;5052057;28;20289;-47
2022/10/13 14:05:08;;;;;;;7.60;5.90;;;;;;;;;;5049767;28;20233;-47
2022/10/13 14:07:35;;;;;;;13.10;6.53;;;;;;;;;;5051687;28;20293;-47
2022/10/13 14:10:02;;;;;;;7.00;5.90;;;;;;;;;;5051833;28;20200;-47
2022/10/13 14:12:29;;;;;;;10.17;5.57;;;;;;;;;;5051757;28;20684;-47
2022/10/13 14:14:55;;;;;;;11.03;6.30;;;;;;;;;;5051448;28;20668;-47
2022/10/13 14:17:21;;;;;;;8.07;5.30;;;;;;;;;;5051723;28;20227;-47
2022/10/13 14:19:47;;;;;;;10.83;6.13;;;;;;;;;;5051851;28;20196;-47
2022/10/13 14:22:13;;;;;;;6.97;5.23;;;;;;;;;;5051781;28;20207;-47
2022/10/13 14:24:39;;;;;;;8.43;5.60;;;;;;;;;;5047808;28;20235;-47
2022/10/13 14:27:07;;;;;;;8.83;5.53;;;;;;;;;;5051192;28;20200;-48
2022/10/13 14:29:34;;;;;;;9.73;5.67;;;;;;;;;;5051354;28;20200;-47
2022/10/13 14:32:00;;;;;;;8.47;5.17;;;;;;;;;;5051183;28;20224;-47
2022/10/13 14:34:26;;;;;;;8.17;5.13;;;;;;;;;;5051297;28;20201;-47
2022/10/13 14:36:52;;;;;;;7.37;5.73;;;;;;;;;;5050825;28;20942;-47
2022/10/13 14:39:20;;;;;;;10.00;5.30;;;;;;;;;;5051111;28;20566;-47
2022/10/13 14:41:47;;;;;;;9.13;5.40;;;;;;;;;;5051021;28;20220;-47